sensor_id;sensor_type;location;lat;lon;timestamp;P1;durP1;ratioP1;P2;durP2;ratioP2
31584;SDS011;18191;51.288;12.390;2023-11-22T00:00:12;13.57;;;4.80;;
31584;SDS011;18191;51.288;12.390;2023-11-22T00:05:03;13.80;;;5.37;;
31584;SDS011;18191;51.288;12.390;2023-11-22T00:14:45;15.90;;;4.97;;
31584;SDS011;18191;51.288;12.390;2023-11-22T00:19:37;14.35;;;5.22;;
31584;SDS011;18191;51.288;12.390;2023-11-22T00:24:28;12.48;;;4.80;;
31584;SDS011;18191;51.288;12.390;2023-11-22T00:29:18;14.23;;;5.10;;
31584;SDS011;18191;51.288;12.390;2023-11-22T00:34:08;15.60;;;5.10;;
31584;SDS011;18191;51.288;12.390;2023-11-22T00:38:59;12.57;;;4.17;;
31584;SDS011;18191;51.288;12.390;2023-11-22T00:43:49;12.13;;;4.93;;
31584;SDS011;18191;51.288;12.390;2023-11-22T00:48:39;14.93;;;4.30;;
31584;SDS011;18191;51.288;12.390;2023-11-22T00:53:30;11.52;;;3.97;;
31584;SDS011;18191;51.288;12.390;2023-11-22T00:58:20;14.63;;;4.67;;
31584;SDS011;18191;51.288;12.390;2023-11-22T01:03:10;8.83;;;3.70;;
31584;SDS011;18191;51.288;12.390;2023-11-22T01:08:01;14.43;;;4.38;;
31584;SDS011;18191;51.288;12.390;2023-11-22T01:12:52;12.57;;;4.20;;
31584;SDS011;18191;51.288;12.390;2023-11-22T01:17:43;8.45;;;2.08;;
31584;SDS011;18191;51.288;12.390;2023-11-22T01:22:33;12.77;;;3.77;;
31584;SDS011;18191;51.288;12.390;2023-11-22T01:27:24;18.23;;;3.97;;
31584;SDS011;18191;51.288;12.390;2023-11-22T01:32:14;8.63;;;3.93;;
31584;SDS011;18191;51.288;12.390;2023-11-22T01:37:07;11.17;;;3.57;;
31584;SDS011;18191;51.288;12.390;2023-11-22T01:41:57;10.80;;;4.53;;
31584;SDS011;18191;51.288;12.390;2023-11-22T01:46:47;9.73;;;3.90;;
31584;SDS011;18191;51.288;12.390;2023-11-22T01:51:38;10.50;;;3.77;;
31584;SDS011;18191;51.288;12.390;2023-11-22T01:56:29;15.03;;;5.60;;
31584;SDS011;18191;51.288;12.390;2023-11-22T02:01:21;14.67;;;4.43;;
31584;SDS011;18191;51.288;12.390;2023-11-22T02:06:12;17.17;;;5.00;;
31584;SDS011;18191;51.288;12.390;2023-11-22T02:11:02;14.90;;;4.23;;
31584;SDS011;18191;51.288;12.390;2023-11-22T02:15:53;11.13;;;4.73;;
31584;SDS011;18191;51.288;12.390;2023-11-22T02:20:46;17.67;;;4.77;;
31584;SDS011;18191;51.288;12.390;2023-11-22T02:25:37;16.92;;;5.10;;
31584;SDS011;18191;51.288;12.390;2023-11-22T02:30:28;16.85;;;4.82;;
31584;SDS011;18191;51.288;12.390;2023-11-22T02:35:18;11.67;;;4.63;;
31584;SDS011;18191;51.288;12.390;2023-11-22T02:40:11;12.90;;;4.30;;
31584;SDS011;18191;51.288;12.390;2023-11-22T02:45:12;25.20;;;4.87;;
31584;SDS011;18191;51.288;12.390;2023-11-22T02:50:04;12.73;;;3.97;;
31584;SDS011;18191;51.288;12.390;2023-11-22T02:54:55;14.70;;;5.40;;
31584;SDS011;18191;51.288;12.390;2023-11-22T02:59:46;12.23;;;4.60;;
31584;SDS011;18191;51.288;12.390;2023-11-22T03:04:36;15.43;;;4.87;;
31584;SDS011;18191;51.288;12.390;2023-11-22T03:09:27;20.73;;;4.37;;
31584;SDS011;18191;51.288;12.390;2023-11-22T03:14:17;16.15;;;5.75;;
31584;SDS011;18191;51.288;12.390;2023-11-22T03:19:08;16.07;;;4.67;;
31584;SDS011;18191;51.288;12.390;2023-11-22T03:23:58;17.63;;;4.60;;
31584;SDS011;18191;51.288;12.390;2023-11-22T03:28:50;10.60;;;4.20;;
31584;SDS011;18191;51.288;12.390;2023-11-22T03:33:40;15.30;;;5.20;;
31584;SDS011;18191;51.288;12.390;2023-11-22T03:38:30;13.65;;;4.82;;
31584;SDS011;18191;51.288;12.390;2023-11-22T03:43:21;20.53;;;5.60;;
31584;SDS011;18191;51.288;12.390;2023-11-22T03:48:11;16.10;;;5.23;;
31584;SDS011;18191;51.288;12.390;2023-11-22T03:53:02;9.50;;;3.90;;
31584;SDS011;18191;51.288;12.390;2023-11-22T03:57:52;13.30;;;4.80;;
31584;SDS011;18191;51.288;12.390;2023-11-22T04:02:43;11.50;;;4.33;;
31584;SDS011;18191;51.288;12.390;2023-11-22T04:07:33;12.27;;;3.97;;
31584;SDS011;18191;51.288;12.390;2023-11-22T04:12:23;16.13;;;4.68;;
31584;SDS011;18191;51.288;12.390;2023-11-22T04:17:15;15.60;;;5.50;;
31584;SDS011;18191;51.288;12.390;2023-11-22T04:22:05;9.13;;;3.77;;
31584;SDS011;18191;51.288;12.390;2023-11-22T04:26:55;13.77;;;5.07;;
31584;SDS011;18191;51.288;12.390;2023-11-22T04:31:45;17.58;;;6.38;;
31584;SDS011;18191;51.288;12.390;2023-11-22T04:36:36;11.40;;;4.57;;
31584;SDS011;18191;51.288;12.390;2023-11-22T04:41:26;14.15;;;5.20;;
31584;SDS011;18191;51.288;12.390;2023-11-22T04:46:16;17.75;;;5.45;;
31584;SDS011;18191;51.288;12.390;2023-11-22T04:51:06;16.00;;;4.28;;
31584;SDS011;18191;51.288;12.390;2023-11-22T04:55:57;16.27;;;5.07;;
31584;SDS011;18191;51.288;12.390;2023-11-22T05:00:47;14.13;;;4.93;;
31584;SDS011;18191;51.288;12.390;2023-11-22T05:05:37;17.50;;;5.22;;
31584;SDS011;18191;51.288;12.390;2023-11-22T05:10:27;16.50;;;5.03;;
31584;SDS011;18191;51.288;12.390;2023-11-22T05:15:18;16.90;;;4.27;;
31584;SDS011;18191;51.288;12.390;2023-11-22T05:20:08;17.00;;;5.03;;
31584;SDS011;18191;51.288;12.390;2023-11-22T05:24:59;12.27;;;5.10;;
31584;SDS011;18191;51.288;12.390;2023-11-22T05:29:49;19.37;;;4.60;;
31584;SDS011;18191;51.288;12.390;2023-11-22T05:34:39;10.75;;;3.33;;
31584;SDS011;18191;51.288;12.390;2023-11-22T05:39:30;16.90;;;5.07;;
31584;SDS011;18191;51.288;12.390;2023-11-22T05:44:20;16.43;;;4.60;;
31584;SDS011;18191;51.288;12.390;2023-11-22T05:49:12;13.63;;;5.00;;
31584;SDS011;18191;51.288;12.390;2023-11-22T05:54:02;12.18;;;4.60;;
31584;SDS011;18191;51.288;12.390;2023-11-22T05:58:53;16.25;;;4.88;;
31584;SDS011;18191;51.288;12.390;2023-11-22T06:03:43;14.95;;;4.07;;
31584;SDS011;18191;51.288;12.390;2023-11-22T06:08:33;8.83;;;3.47;;
31584;SDS011;18191;51.288;12.390;2023-11-22T06:13:24;15.40;;;4.17;;
31584;SDS011;18191;51.288;12.390;2023-11-22T06:18:14;17.30;;;4.90;;
31584;SDS011;18191;51.288;12.390;2023-11-22T06:23:05;27.55;;;6.03;;
31584;SDS011;18191;51.288;12.390;2023-11-22T06:27:55;11.60;;;3.17;;
31584;SDS011;18191;51.288;12.390;2023-11-22T06:32:46;11.87;;;4.53;;
31584;SDS011;18191;51.288;12.390;2023-11-22T06:37:36;25.88;;;6.32;;
31584;SDS011;18191;51.288;12.390;2023-11-22T06:42:27;11.60;;;4.43;;
31584;SDS011;18191;51.288;12.390;2023-11-22T06:47:17;15.03;;;5.43;;
31584;SDS011;18191;51.288;12.390;2023-11-22T06:52:08;14.90;;;5.03;;
31584;SDS011;18191;51.288;12.390;2023-11-22T06:56:58;20.83;;;5.30;;
31584;SDS011;18191;51.288;12.390;2023-11-22T07:01:49;18.10;;;5.67;;
31584;SDS011;18191;51.288;12.390;2023-11-22T07:06:39;26.77;;;7.13;;
31584;SDS011;18191;51.288;12.390;2023-11-22T07:11:29;22.13;;;6.47;;
31584;SDS011;18191;51.288;12.390;2023-11-22T07:16:21;17.33;;;6.05;;
31584;SDS011;18191;51.288;12.390;2023-11-22T07:21:11;15.50;;;5.87;;
31584;SDS011;18191;51.288;12.390;2023-11-22T07:26:01;19.97;;;6.50;;
31584;SDS011;18191;51.288;12.390;2023-11-22T07:30:53;19.77;;;6.30;;
31584;SDS011;18191;51.288;12.390;2023-11-22T07:35:43;11.30;;;4.27;;
31584;SDS011;18191;51.288;12.390;2023-11-22T07:40:34;9.40;;;4.10;;
31584;SDS011;18191;51.288;12.390;2023-11-22T07:45:24;13.80;;;5.80;;
31584;SDS011;18191;51.288;12.390;2023-11-22T07:50:15;15.50;;;5.87;;
31584;SDS011;18191;51.288;12.390;2023-11-22T07:55:05;33.37;;;4.67;;
31584;SDS011;18191;51.288;12.390;2023-11-22T07:59:59;14.10;;;5.73;;
31584;SDS011;18191;51.288;12.390;2023-11-22T08:04:51;19.97;;;6.80;;
31584;SDS011;18191;51.288;12.390;2023-11-22T08:09:42;16.47;;;6.43;;
31584;SDS011;18191;51.288;12.390;2023-11-22T08:14:35;18.90;;;6.20;;
31584;SDS011;18191;51.288;12.390;2023-11-22T08:19:26;17.80;;;6.97;;
31584;SDS011;18191;51.288;12.390;2023-11-22T08:24:17;15.68;;;5.53;;
31584;SDS011;18191;51.288;12.390;2023-11-22T08:29:08;16.92;;;6.38;;
31584;SDS011;18191;51.288;12.390;2023-11-22T08:33:59;16.97;;;6.47;;
31584;SDS011;18191;51.288;12.390;2023-11-22T08:38:49;15.98;;;6.40;;
31584;SDS011;18191;51.288;12.390;2023-11-22T08:43:40;24.95;;;6.35;;
31584;SDS011;18191;51.288;12.390;2023-11-22T08:48:30;22.25;;;7.90;;
31584;SDS011;18191;51.288;12.390;2023-11-22T08:53:21;22.77;;;7.30;;
31584;SDS011;18191;51.288;12.390;2023-11-22T08:58:11;21.67;;;6.40;;
31584;SDS011;18191;51.288;12.390;2023-11-22T09:03:01;20.20;;;6.68;;
31584;SDS011;18191;51.288;12.390;2023-11-22T09:12:45;19.00;;;6.73;;
31584;SDS011;18191;51.288;12.390;2023-11-22T09:17:37;22.37;;;6.10;;
31584;SDS011;18191;51.288;12.390;2023-11-22T09:22:34;21.87;;;6.90;;
31584;SDS011;18191;51.288;12.390;2023-11-22T09:27:24;15.77;;;5.85;;
31584;SDS011;18191;51.288;12.390;2023-11-22T09:32:15;23.65;;;7.40;;
31584;SDS011;18191;51.288;12.390;2023-11-22T09:37:05;21.30;;;7.20;;
31584;SDS011;18191;51.288;12.390;2023-11-22T09:41:56;20.42;;;6.57;;
31584;SDS011;18191;51.288;12.390;2023-11-22T09:46:48;9.53;;;3.60;;
31584;SDS011;18191;51.288;12.390;2023-11-22T09:51:39;15.07;;;6.87;;
31584;SDS011;18191;51.288;12.390;2023-11-22T09:56:32;19.90;;;6.70;;
31584;SDS011;18191;51.288;12.390;2023-11-22T10:01:24;25.05;;;6.97;;
31584;SDS011;18191;51.288;12.390;2023-11-22T10:06:14;19.80;;;7.37;;
31584;SDS011;18191;51.288;12.390;2023-11-22T10:11:05;17.48;;;6.78;;
31584;SDS011;18191;51.288;12.390;2023-11-22T10:15:56;19.58;;;6.82;;
31584;SDS011;18191;51.288;12.390;2023-11-22T10:21:00;21.87;;;6.73;;
31584;SDS011;18191;51.288;12.390;2023-11-22T10:25:53;20.13;;;7.53;;
31584;SDS011;18191;51.288;12.390;2023-11-22T10:30:45;23.58;;;6.53;;
31584;SDS011;18191;51.288;12.390;2023-11-22T10:35:43;16.23;;;6.10;;
31584;SDS011;18191;51.288;12.390;2023-11-22T10:40:35;17.60;;;6.40;;
31584;SDS011;18191;51.288;12.390;2023-11-22T10:45:27;16.57;;;6.30;;
31584;SDS011;18191;51.288;12.390;2023-11-22T10:50:20;13.10;;;5.87;;
31584;SDS011;18191;51.288;12.390;2023-11-22T10:55:12;17.65;;;6.93;;
31584;SDS011;18191;51.288;12.390;2023-11-22T11:00:06;15.13;;;6.70;;
31584;SDS011;18191;51.288;12.390;2023-11-22T11:05:06;15.50;;;6.60;;
31584;SDS011;18191;51.288;12.390;2023-11-22T11:10:07;20.40;;;7.37;;
31584;SDS011;18191;51.288;12.390;2023-11-22T11:14:58;14.80;;;6.97;;
31584;SDS011;18191;51.288;12.390;2023-11-22T11:19:49;18.15;;;7.15;;
31584;SDS011;18191;51.288;12.390;2023-11-22T11:24:40;23.83;;;7.37;;
31584;SDS011;18191;51.288;12.390;2023-11-22T11:34:23;16.00;;;6.18;;
31584;SDS011;18191;51.288;12.390;2023-11-22T11:39:13;16.88;;;6.43;;
31584;SDS011;18191;51.288;12.390;2023-11-22T11:44:07;20.70;;;6.63;;
31584;SDS011;18191;51.288;12.390;2023-11-22T11:48:59;16.93;;;6.73;;
31584;SDS011;18191;51.288;12.390;2023-11-22T11:53:51;20.53;;;6.80;;
31584;SDS011;18191;51.288;12.390;2023-11-22T11:58:42;20.02;;;7.05;;
31584;SDS011;18191;51.288;12.390;2023-11-22T12:03:42;14.57;;;6.77;;
31584;SDS011;18191;51.288;12.390;2023-11-22T12:08:35;15.33;;;6.37;;
31584;SDS011;18191;51.288;12.390;2023-11-22T12:13:26;20.73;;;6.80;;
31584;SDS011;18191;51.288;12.390;2023-11-22T12:18:16;46.00;;;12.67;;
31584;SDS011;18191;51.288;12.390;2023-11-22T12:23:07;21.47;;;7.47;;
31584;SDS011;18191;51.288;12.390;2023-11-22T12:27:59;11.95;;;6.13;;
31584;SDS011;18191;51.288;12.390;2023-11-22T12:32:49;19.93;;;7.20;;
31584;SDS011;18191;51.288;12.390;2023-11-22T12:37:39;19.22;;;7.78;;
31584;SDS011;18191;51.288;12.390;2023-11-22T12:42:30;16.18;;;6.12;;
31584;SDS011;18191;51.288;12.390;2023-11-22T12:47:31;16.65;;;6.05;;
31584;SDS011;18191;51.288;12.390;2023-11-22T12:52:27;10.07;;;5.53;;
31584;SDS011;18191;51.288;12.390;2023-11-22T12:57:18;15.65;;;6.05;;
31584;SDS011;18191;51.288;12.390;2023-11-22T13:02:08;15.43;;;6.60;;
31584;SDS011;18191;51.288;12.390;2023-11-22T13:06:59;10.00;;;6.07;;
31584;SDS011;18191;51.288;12.390;2023-11-22T13:11:50;16.63;;;5.73;;
31584;SDS011;18191;51.288;12.390;2023-11-22T13:16:41;16.80;;;6.07;;
31584;SDS011;18191;51.288;12.390;2023-11-22T13:21:32;29.73;;;10.68;;
31584;SDS011;18191;51.288;12.390;2023-11-22T13:26:23;15.60;;;6.35;;
31584;SDS011;18191;51.288;12.390;2023-11-22T13:31:13;30.63;;;9.50;;
31584;SDS011;18191;51.288;12.390;2023-11-22T13:36:04;15.10;;;6.18;;
31584;SDS011;18191;51.288;12.390;2023-11-22T13:40:55;14.50;;;6.77;;
31584;SDS011;18191;51.288;12.390;2023-11-22T13:45:45;33.58;;;14.20;;
31584;SDS011;18191;51.288;12.390;2023-11-22T13:50:35;17.50;;;7.68;;
31584;SDS011;18191;51.288;12.390;2023-11-22T13:55:26;13.33;;;6.57;;
31584;SDS011;18191;51.288;12.390;2023-11-22T14:00:18;13.95;;;5.93;;
31584;SDS011;18191;51.288;12.390;2023-11-22T14:05:09;21.77;;;7.47;;
31584;SDS011;18191;51.288;12.390;2023-11-22T14:10:02;14.90;;;6.27;;
31584;SDS011;18191;51.288;12.390;2023-11-22T14:14:53;14.63;;;6.33;;
31584;SDS011;18191;51.288;12.390;2023-11-22T14:19:43;16.65;;;6.72;;
31584;SDS011;18191;51.288;12.390;2023-11-22T14:24:34;18.23;;;7.00;;
31584;SDS011;18191;51.288;12.390;2023-11-22T14:29:27;13.07;;;6.27;;
31584;SDS011;18191;51.288;12.390;2023-11-22T14:34:17;18.43;;;7.67;;
31584;SDS011;18191;51.288;12.390;2023-11-22T14:39:07;17.60;;;6.43;;
31584;SDS011;18191;51.288;12.390;2023-11-22T14:44:02;15.30;;;6.37;;
31584;SDS011;18191;51.288;12.390;2023-11-22T14:48:52;15.40;;;6.47;;
31584;SDS011;18191;51.288;12.390;2023-11-22T14:53:43;17.60;;;7.18;;
31584;SDS011;18191;51.288;12.390;2023-11-22T14:58:33;24.63;;;6.13;;
31584;SDS011;18191;51.288;12.390;2023-11-22T15:03:24;19.23;;;6.35;;
31584;SDS011;18191;51.288;12.390;2023-11-22T15:08:17;18.03;;;7.33;;
31584;SDS011;18191;51.288;12.390;2023-11-22T15:13:07;17.73;;;7.27;;
31584;SDS011;18191;51.288;12.390;2023-11-22T15:17:58;26.48;;;7.15;;
31584;SDS011;18191;51.288;12.390;2023-11-22T15:22:49;19.13;;;6.57;;
31584;SDS011;18191;51.288;12.390;2023-11-22T15:27:40;25.93;;;8.23;;
31584;SDS011;18191;51.288;12.390;2023-11-22T15:32:30;18.23;;;8.10;;
31584;SDS011;18191;51.288;12.390;2023-11-22T15:37:20;15.02;;;6.35;;
31584;SDS011;18191;51.288;12.390;2023-11-22T15:42:11;19.13;;;6.60;;
31584;SDS011;18191;51.288;12.390;2023-11-22T15:47:01;26.35;;;7.90;;
31584;SDS011;18191;51.288;12.390;2023-11-22T15:51:55;27.50;;;9.90;;
31584;SDS011;18191;51.288;12.390;2023-11-22T15:56:46;23.63;;;8.63;;
31584;SDS011;18191;51.288;12.390;2023-11-22T16:01:36;19.33;;;8.00;;
31584;SDS011;18191;51.288;12.390;2023-11-22T16:06:26;22.97;;;8.33;;
31584;SDS011;18191;51.288;12.390;2023-11-22T16:16:08;35.70;;;8.53;;
31584;SDS011;18191;51.288;12.390;2023-11-22T16:20:58;35.65;;;10.02;;
31584;SDS011;18191;51.288;12.390;2023-11-22T16:25:49;28.95;;;11.05;;
31584;SDS011;18191;51.288;12.390;2023-11-22T16:30:39;23.50;;;9.30;;
31584;SDS011;18191;51.288;12.390;2023-11-22T16:35:30;27.02;;;8.25;;
31584;SDS011;18191;51.288;12.390;2023-11-22T16:40:21;17.80;;;7.13;;
31584;SDS011;18191;51.288;12.390;2023-11-22T16:45:12;20.67;;;7.67;;
31584;SDS011;18191;51.288;12.390;2023-11-22T16:50:02;18.17;;;6.80;;
31584;SDS011;18191;51.288;12.390;2023-11-22T16:54:55;18.07;;;7.20;;
31584;SDS011;18191;51.288;12.390;2023-11-22T16:59:45;18.83;;;7.90;;
31584;SDS011;18191;51.288;12.390;2023-11-22T17:04:35;16.45;;;7.43;;
31584;SDS011;18191;51.288;12.390;2023-11-22T17:09:26;13.38;;;6.45;;
31584;SDS011;18191;51.288;12.390;2023-11-22T17:14:17;15.23;;;6.77;;
31584;SDS011;18191;51.288;12.390;2023-11-22T17:19:07;20.77;;;7.70;;
31584;SDS011;18191;51.288;12.390;2023-11-22T17:23:57;18.52;;;8.10;;
31584;SDS011;18191;51.288;12.390;2023-11-22T17:28:48;17.40;;;6.87;;
31584;SDS011;18191;51.288;12.390;2023-11-22T17:33:38;15.48;;;6.90;;
31584;SDS011;18191;51.288;12.390;2023-11-22T17:38:29;19.67;;;7.80;;
31584;SDS011;18191;51.288;12.390;2023-11-22T17:43:21;23.47;;;8.40;;
31584;SDS011;18191;51.288;12.390;2023-11-22T17:48:13;18.03;;;8.33;;
31584;SDS011;18191;51.288;12.390;2023-11-22T17:53:04;25.33;;;8.65;;
31584;SDS011;18191;51.288;12.390;2023-11-22T17:57:54;16.83;;;7.80;;
31584;SDS011;18191;51.288;12.390;2023-11-22T18:02:45;25.13;;;8.03;;
31584;SDS011;18191;51.288;12.390;2023-11-22T18:12:29;12.23;;;6.43;;
31584;SDS011;18191;51.288;12.390;2023-11-22T18:17:20;19.60;;;7.57;;
31584;SDS011;18191;51.288;12.390;2023-11-22T18:22:10;18.70;;;7.23;;
31584;SDS011;18191;51.288;12.390;2023-11-22T18:27:00;15.05;;;7.93;;
31584;SDS011;18191;51.288;12.390;2023-11-22T18:31:51;17.20;;;7.88;;
31584;SDS011;18191;51.288;12.390;2023-11-22T18:36:42;14.43;;;5.50;;
31584;SDS011;18191;51.288;12.390;2023-11-22T18:41:32;16.92;;;7.15;;
31584;SDS011;18191;51.288;12.390;2023-11-22T18:46:22;17.83;;;6.55;;
31584;SDS011;18191;51.288;12.390;2023-11-22T18:51:13;18.75;;;7.05;;
31584;SDS011;18191;51.288;12.390;2023-11-22T18:56:03;19.50;;;7.60;;
31584;SDS011;18191;51.288;12.390;2023-11-22T19:00:54;16.17;;;6.50;;
31584;SDS011;18191;51.288;12.390;2023-11-22T19:05:44;15.93;;;6.70;;
31584;SDS011;18191;51.288;12.390;2023-11-22T19:10:35;19.35;;;7.07;;
31584;SDS011;18191;51.288;12.390;2023-11-22T19:15:26;20.90;;;7.07;;
31584;SDS011;18191;51.288;12.390;2023-11-22T19:20:16;13.73;;;6.13;;
31584;SDS011;18191;51.288;12.390;2023-11-22T19:25:09;19.13;;;6.63;;
31584;SDS011;18191;51.288;12.390;2023-11-22T19:30:01;24.03;;;7.37;;
31584;SDS011;18191;51.288;12.390;2023-11-22T19:34:53;24.47;;;7.07;;
31584;SDS011;18191;51.288;12.390;2023-11-22T19:39:44;24.83;;;7.10;;
31584;SDS011;18191;51.288;12.390;2023-11-22T19:44:34;16.43;;;6.13;;
31584;SDS011;18191;51.288;12.390;2023-11-22T19:49:24;29.20;;;8.00;;
31584;SDS011;18191;51.288;12.390;2023-11-22T19:54:15;13.97;;;6.63;;
31584;SDS011;18191;51.288;12.390;2023-11-22T19:59:05;17.52;;;6.82;;
31584;SDS011;18191;51.288;12.390;2023-11-22T20:03:55;17.63;;;6.82;;
31584;SDS011;18191;51.288;12.390;2023-11-22T20:08:46;21.73;;;8.60;;
31584;SDS011;18191;51.288;12.390;2023-11-22T20:13:37;15.15;;;7.25;;
31584;SDS011;18191;51.288;12.390;2023-11-22T20:18:27;16.10;;;6.90;;
31584;SDS011;18191;51.288;12.390;2023-11-22T20:23:17;18.75;;;7.95;;
31584;SDS011;18191;51.288;12.390;2023-11-22T20:28:09;18.50;;;7.07;;
31584;SDS011;18191;51.288;12.390;2023-11-22T20:32:59;17.77;;;6.80;;
31584;SDS011;18191;51.288;12.390;2023-11-22T20:37:50;16.23;;;5.03;;
31584;SDS011;18191;51.288;12.390;2023-11-22T20:42:40;21.52;;;6.38;;
31584;SDS011;18191;51.288;12.390;2023-11-22T20:47:30;9.00;;;4.20;;
31584;SDS011;18191;51.288;12.390;2023-11-22T20:52:21;18.77;;;7.10;;
31584;SDS011;18191;51.288;12.390;2023-11-22T20:57:11;14.30;;;6.17;;
31584;SDS011;18191;51.288;12.390;2023-11-22T21:02:02;18.53;;;6.10;;
31584;SDS011;18191;51.288;12.390;2023-11-22T21:06:52;19.70;;;6.77;;
31584;SDS011;18191;51.288;12.390;2023-11-22T21:11:42;13.23;;;5.80;;
31584;SDS011;18191;51.288;12.390;2023-11-22T21:16:33;15.17;;;5.70;;
31584;SDS011;18191;51.288;12.390;2023-11-22T21:26:15;22.05;;;6.35;;
31584;SDS011;18191;51.288;12.390;2023-11-22T21:31:05;17.93;;;5.93;;
31584;SDS011;18191;51.288;12.390;2023-11-22T21:35:56;12.77;;;4.97;;
31584;SDS011;18191;51.288;12.390;2023-11-22T21:40:46;14.30;;;5.87;;
31584;SDS011;18191;51.288;12.390;2023-11-22T21:45:37;16.90;;;5.50;;
31584;SDS011;18191;51.288;12.390;2023-11-22T21:50:27;16.47;;;6.23;;
31584;SDS011;18191;51.288;12.390;2023-11-22T21:55:17;15.67;;;5.97;;
31584;SDS011;18191;51.288;12.390;2023-11-22T22:00:08;16.73;;;6.33;;
31584;SDS011;18191;51.288;12.390;2023-11-22T22:05:01;13.13;;;5.50;;
31584;SDS011;18191;51.288;12.390;2023-11-22T22:09:51;19.67;;;5.90;;
31584;SDS011;18191;51.288;12.390;2023-11-22T22:14:44;20.37;;;5.67;;
31584;SDS011;18191;51.288;12.390;2023-11-22T22:19:34;13.37;;;4.97;;
31584;SDS011;18191;51.288;12.390;2023-11-22T22:24:25;15.85;;;5.47;;
31584;SDS011;18191;51.288;12.390;2023-11-22T22:29:15;7.67;;;3.50;;
31584;SDS011;18191;51.288;12.390;2023-11-22T22:34:06;14.30;;;4.97;;
31584;SDS011;18191;51.288;12.390;2023-11-22T22:38:57;17.92;;;5.82;;
31584;SDS011;18191;51.288;12.390;2023-11-22T22:43:49;10.80;;;4.83;;
31584;SDS011;18191;51.288;12.390;2023-11-22T22:48:39;15.93;;;5.47;;
31584;SDS011;18191;51.288;12.390;2023-11-22T22:53:29;14.73;;;5.53;;
31584;SDS011;18191;51.288;12.390;2023-11-22T22:58:20;12.63;;;4.68;;
31584;SDS011;18191;51.288;12.390;2023-11-22T23:03:11;13.25;;;5.57;;
31584;SDS011;18191;51.288;12.390;2023-11-22T23:08:01;13.68;;;4.20;;
31584;SDS011;18191;51.288;12.390;2023-11-22T23:12:52;16.50;;;5.40;;
31584;SDS011;18191;51.288;12.390;2023-11-22T23:17:45;14.80;;;4.37;;
31584;SDS011;18191;51.288;12.390;2023-11-22T23:22:37;9.43;;;4.37;;
31584;SDS011;18191;51.288;12.390;2023-11-22T23:27:30;11.80;;;4.80;;
31584;SDS011;18191;51.288;12.390;2023-11-22T23:32:21;12.00;;;4.47;;
31584;SDS011;18191;51.288;12.390;2023-11-22T23:37:11;11.50;;;3.87;;
31584;SDS011;18191;51.288;12.390;2023-11-22T23:42:02;11.23;;;4.37;;
31584;SDS011;18191;51.288;12.390;2023-11-22T23:46:54;10.30;;;3.90;;
31584;SDS011;18191;51.288;12.390;2023-11-22T23:51:44;11.65;;;4.53;;
31584;SDS011;18191;51.288;12.390;2023-11-22T23:56:34;13.77;;;3.97;;
